sensor_id;sensor_type;location;lat;lon;timestamp;P1;durP1;ratioP1;P2;durP2;ratioP2
69937;SDS011;57248;47.320;15.998;2024-02-14T00:01:47;1.00;;;0.30;;
69937;SDS011;57248;47.320;15.998;2024-02-14T00:04:19;0.23;;;0.00;;
69937;SDS011;57248;47.320;15.998;2024-02-14T00:06:52;2.03;;;0.20;;
69937;SDS011;57248;47.320;15.998;2024-02-14T00:09:25;1.17;;;0.28;;
69937;SDS011;57248;47.320;15.998;2024-02-14T00:11:57;14.20;;;0.90;;
69937;SDS011;57248;47.320;15.998;2024-02-14T00:14:22;2.93;;;0.50;;
69937;SDS011;57248;47.320;15.998;2024-02-14T00:16:55;2.05;;;0.43;;
69937;SDS011;57248;47.320;15.998;2024-02-14T00:19:28;0.95;;;0.30;;
69937;SDS011;57248;47.320;15.998;2024-02-14T00:22:00;0.25;;;0.00;;
69937;SDS011;57248;47.320;15.998;2024-02-14T00:24:32;1.30;;;0.27;;
69937;SDS011;57248;47.320;15.998;2024-02-14T00:27:11;0.65;;;0.10;;
69937;SDS011;57248;47.320;15.998;2024-02-14T00:29:37;0.45;;;0.00;;
69937;SDS011;57248;47.320;15.998;2024-02-14T00:32:09;0.40;;;0.10;;
69937;SDS011;57248;47.320;15.998;2024-02-14T00:34:41;0.30;;;0.00;;
69937;SDS011;57248;47.320;15.998;2024-02-14T00:37:14;0.70;;;0.10;;
69937;SDS011;57248;47.320;15.998;2024-02-14T00:39:39;0.38;;;0.13;;
69937;SDS011;57248;47.320;15.998;2024-02-14T00:42:11;0.87;;;0.10;;
69937;SDS011;57248;47.320;15.998;2024-02-14T00:44:43;0.00;;;0.00;;
69937;SDS011;57248;47.320;15.998;2024-02-14T00:47:15;1.38;;;0.05;;
69937;SDS011;57248;47.320;15.998;2024-02-14T00:49:47;0.65;;;0.15;;
69937;SDS011;57248;47.320;15.998;2024-02-14T00:52:19;0.95;;;0.35;;
69937;SDS011;57248;47.320;15.998;2024-02-14T00:54:53;0.67;;;0.07;;
69937;SDS011;57248;47.320;15.998;2024-02-14T00:57:26;0.10;;;0.00;;
69937;SDS011;57248;47.320;15.998;2024-02-14T00:59:58;0.63;;;0.30;;
69937;SDS011;57248;47.320;15.998;2024-02-14T01:02:24;1.45;;;0.20;;
69937;SDS011;57248;47.320;15.998;2024-02-14T01:04:58;0.73;;;0.20;;
69937;SDS011;57248;47.320;15.998;2024-02-14T01:07:30;1.33;;;0.43;;
69937;SDS011;57248;47.320;15.998;2024-02-14T01:10:03;0.30;;;0.17;;
69937;SDS011;57248;47.320;15.998;2024-02-14T01:12:29;0.25;;;0.10;;
69937;SDS011;57248;47.320;15.998;2024-02-14T01:15:04;0.63;;;0.13;;
69937;SDS011;57248;47.320;15.998;2024-02-14T01:17:30;0.70;;;0.20;;
69937;SDS011;57248;47.320;15.998;2024-02-14T01:20:02;0.98;;;0.10;;
69937;SDS011;57248;47.320;15.998;2024-02-14T01:22:35;1.48;;;0.10;;
69937;SDS011;57248;47.320;15.998;2024-02-14T01:25:15;0.10;;;0.00;;
69937;SDS011;57248;47.320;15.998;2024-02-14T01:27:47;0.80;;;0.30;;
69937;SDS011;57248;47.320;15.998;2024-02-14T01:30:21;0.70;;;0.10;;
69937;SDS011;57248;47.320;15.998;2024-02-14T01:32:53;0.10;;;0.00;;
69937;SDS011;57248;47.320;15.998;2024-02-14T01:35:26;1.58;;;0.20;;
69937;SDS011;57248;47.320;15.998;2024-02-14T01:37:51;0.67;;;0.10;;
69937;SDS011;57248;47.320;15.998;2024-02-14T01:40:24;0.98;;;0.20;;
69937;SDS011;57248;47.320;15.998;2024-02-14T01:42:56;1.40;;;0.13;;
69937;SDS011;57248;47.320;15.998;2024-02-14T01:45:28;2.10;;;0.15;;
69937;SDS011;57248;47.320;15.998;2024-02-14T01:48:00;1.35;;;0.20;;
69937;SDS011;57248;47.320;15.998;2024-02-14T01:50:33;1.77;;;0.00;;
69937;SDS011;57248;47.320;15.998;2024-02-14T01:53:00;0.05;;;0.00;;
69937;SDS011;57248;47.320;15.998;2024-02-14T01:55:33;1.02;;;0.00;;
69937;SDS011;57248;47.320;15.998;2024-02-14T01:58:06;0.55;;;0.10;;
69937;SDS011;57248;47.320;15.998;2024-02-14T02:00:38;0.40;;;0.10;;
69937;SDS011;57248;47.320;15.998;2024-02-14T02:03:12;0.37;;;0.20;;
69937;SDS011;57248;47.320;15.998;2024-02-14T02:05:38;0.38;;;0.13;;
69937;SDS011;57248;47.320;15.998;2024-02-14T02:08:10;0.55;;;0.00;;
69937;SDS011;57248;47.320;15.998;2024-02-14T02:10:42;1.05;;;0.17;;
69937;SDS011;57248;47.320;15.998;2024-02-14T02:13:07;0.47;;;0.10;;
69937;SDS011;57248;47.320;15.998;2024-02-14T02:15:41;8.43;;;0.45;;
69937;SDS011;57248;47.320;15.998;2024-02-14T02:18:16;0.25;;;0.10;;
69937;SDS011;57248;47.320;15.998;2024-02-14T02:20:48;0.80;;;0.00;;
69937;SDS011;57248;47.320;15.998;2024-02-14T02:23:20;0.43;;;0.03;;
69937;SDS011;57248;47.320;15.998;2024-02-14T02:25:54;1.38;;;0.47;;
69937;SDS011;57248;47.320;15.998;2024-02-14T02:28:33;1.10;;;0.17;;
69937;SDS011;57248;47.320;15.998;2024-02-14T02:31:05;0.35;;;0.00;;
69937;SDS011;57248;47.320;15.998;2024-02-14T02:33:30;2.40;;;0.33;;
69937;SDS011;57248;47.320;15.998;2024-02-14T02:36:03;1.50;;;0.65;;
69937;SDS011;57248;47.320;15.998;2024-02-14T02:38:35;0.25;;;0.00;;
69937;SDS011;57248;47.320;15.998;2024-02-14T02:41:08;0.77;;;0.40;;
69937;SDS011;57248;47.320;15.998;2024-02-14T02:43:40;0.82;;;0.25;;
69937;SDS011;57248;47.320;15.998;2024-02-14T02:46:12;0.32;;;0.10;;
69937;SDS011;57248;47.320;15.998;2024-02-14T02:48:37;4.80;;;0.33;;
69937;SDS011;57248;47.320;15.998;2024-02-14T02:51:10;0.85;;;0.15;;
69937;SDS011;57248;47.320;15.998;2024-02-14T02:53:42;0.22;;;0.00;;
69937;SDS011;57248;47.320;15.998;2024-02-14T02:56:14;1.42;;;0.35;;
69937;SDS011;57248;47.320;15.998;2024-02-14T02:58:40;0.20;;;0.00;;
69937;SDS011;57248;47.320;15.998;2024-02-14T03:01:12;0.80;;;0.10;;
69937;SDS011;57248;47.320;15.998;2024-02-14T03:03:44;0.10;;;0.00;;
69937;SDS011;57248;47.320;15.998;2024-02-14T03:06:16;0.50;;;0.00;;
69937;SDS011;57248;47.320;15.998;2024-02-14T03:08:48;0.40;;;0.15;;
69937;SDS011;57248;47.320;15.998;2024-02-14T03:11:20;0.10;;;0.00;;
69937;SDS011;57248;47.320;15.998;2024-02-14T03:13:52;0.20;;;0.00;;
69937;SDS011;57248;47.320;15.998;2024-02-14T03:16:17;0.63;;;0.10;;
69937;SDS011;57248;47.320;15.998;2024-02-14T03:18:50;0.60;;;0.27;;
69937;SDS011;57248;47.320;15.998;2024-02-14T03:21:22;0.50;;;0.00;;
69937;SDS011;57248;47.320;15.998;2024-02-14T03:24:01;0.50;;;0.10;;
69937;SDS011;57248;47.320;15.998;2024-02-14T03:26:37;1.65;;;0.20;;
69937;SDS011;57248;47.320;15.998;2024-02-14T03:29:16;0.00;;;0.00;;
69937;SDS011;57248;47.320;15.998;2024-02-14T03:31:48;1.23;;;0.30;;
69937;SDS011;57248;47.320;15.998;2024-02-14T03:34:20;0.17;;;0.00;;
69937;SDS011;57248;47.320;15.998;2024-02-14T03:36:53;0.63;;;0.10;;
69937;SDS011;57248;47.320;15.998;2024-02-14T03:39:18;0.30;;;0.10;;
69937;SDS011;57248;47.320;15.998;2024-02-14T03:41:51;0.22;;;0.00;;
69937;SDS011;57248;47.320;15.998;2024-02-14T03:44:24;0.00;;;0.00;;
69937;SDS011;57248;47.320;15.998;2024-02-14T03:47:03;0.10;;;0.00;;
69937;SDS011;57248;47.320;15.998;2024-02-14T03:49:36;0.15;;;0.00;;
69937;SDS011;57248;47.320;15.998;2024-02-14T03:52:01;0.23;;;0.10;;
69937;SDS011;57248;47.320;15.998;2024-02-14T03:54:40;0.45;;;0.08;;
69937;SDS011;57248;47.320;15.998;2024-02-14T03:57:05;0.43;;;0.07;;
69937;SDS011;57248;47.320;15.998;2024-02-14T03:59:40;0.10;;;0.00;;
69937;SDS011;57248;47.320;15.998;2024-02-14T04:02:12;0.45;;;0.10;;
69937;SDS011;57248;47.320;15.998;2024-02-14T04:04:45;1.00;;;0.20;;
69937;SDS011;57248;47.320;15.998;2024-02-14T04:07:18;0.47;;;0.00;;
69937;SDS011;57248;47.320;15.998;2024-02-14T04:09:43;2.40;;;0.30;;
69937;SDS011;57248;47.320;15.998;2024-02-14T04:12:16;0.17;;;0.00;;
69937;SDS011;57248;47.320;15.998;2024-02-14T04:14:48;1.58;;;0.35;;
69937;SDS011;57248;47.320;15.998;2024-02-14T04:17:27;0.25;;;0.00;;
69937;SDS011;57248;47.320;15.998;2024-02-14T04:19:59;0.38;;;0.00;;
69937;SDS011;57248;47.320;15.998;2024-02-14T04:22:31;0.77;;;0.00;;
69937;SDS011;57248;47.320;15.998;2024-02-14T04:24:56;13.40;;;0.25;;
69937;SDS011;57248;47.320;15.998;2024-02-14T04:27:29;0.17;;;0.00;;
69937;SDS011;57248;47.320;15.998;2024-02-14T04:30:01;0.40;;;0.00;;
69937;SDS011;57248;47.320;15.998;2024-02-14T04:32:34;0.00;;;0.00;;
69937;SDS011;57248;47.320;15.998;2024-02-14T04:35:06;0.10;;;0.00;;
69937;SDS011;57248;47.320;15.998;2024-02-14T04:37:38;0.30;;;0.00;;
69937;SDS011;57248;47.320;15.998;2024-02-14T04:40:11;1.10;;;0.20;;
69937;SDS011;57248;47.320;15.998;2024-02-14T04:42:39;0.10;;;0.00;;
69937;SDS011;57248;47.320;15.998;2024-02-14T04:45:12;0.10;;;0.00;;
69937;SDS011;57248;47.320;15.998;2024-02-14T04:47:45;0.47;;;0.20;;
69937;SDS011;57248;47.320;15.998;2024-02-14T04:50:17;0.03;;;0.00;;
69937;SDS011;57248;47.320;15.998;2024-02-14T04:52:44;0.52;;;0.10;;
69937;SDS011;57248;47.320;15.998;2024-02-14T04:55:16;4.27;;;0.20;;
69937;SDS011;57248;47.320;15.998;2024-02-14T04:57:41;0.90;;;0.30;;
69937;SDS011;57248;47.320;15.998;2024-02-14T05:00:13;0.40;;;0.00;;
69937;SDS011;57248;47.320;15.998;2024-02-14T05:02:46;0.82;;;0.38;;
69937;SDS011;57248;47.320;15.998;2024-02-14T05:05:18;0.10;;;0.00;;
69937;SDS011;57248;47.320;15.998;2024-02-14T05:07:52;0.35;;;0.10;;
69937;SDS011;57248;47.320;15.998;2024-02-14T05:10:25;0.05;;;0.00;;
69937;SDS011;57248;47.320;15.998;2024-02-14T05:12:57;0.20;;;0.00;;
69937;SDS011;57248;47.320;15.998;2024-02-14T05:15:30;0.93;;;0.20;;
69937;SDS011;57248;47.320;15.998;2024-02-14T05:18:09;0.57;;;0.10;;
69937;SDS011;57248;47.320;15.998;2024-02-14T05:20:41;0.60;;;0.00;;
69937;SDS011;57248;47.320;15.998;2024-02-14T05:23:13;1.45;;;0.40;;
69937;SDS011;57248;47.320;15.998;2024-02-14T05:25:52;3.63;;;0.50;;
69937;SDS011;57248;47.320;15.998;2024-02-14T05:28:25;0.45;;;0.10;;
69937;SDS011;57248;47.320;15.998;2024-02-14T05:30:59;0.35;;;0.00;;
69937;SDS011;57248;47.320;15.998;2024-02-14T05:33:32;3.50;;;0.75;;
69937;SDS011;57248;47.320;15.998;2024-02-14T05:36:04;0.25;;;0.00;;
69937;SDS011;57248;47.320;15.998;2024-02-14T05:38:37;1.00;;;0.00;;
69937;SDS011;57248;47.320;15.998;2024-02-14T05:41:02;0.90;;;0.20;;
69937;SDS011;57248;47.320;15.998;2024-02-14T05:43:39;0.85;;;0.22;;
69937;SDS011;57248;47.320;15.998;2024-02-14T05:46:12;0.27;;;0.10;;
69937;SDS011;57248;47.320;15.998;2024-02-14T05:48:44;0.10;;;0.00;;
69937;SDS011;57248;47.320;15.998;2024-02-14T05:51:09;0.73;;;0.30;;
69937;SDS011;57248;47.320;15.998;2024-02-14T05:53:42;0.00;;;0.00;;
69937;SDS011;57248;47.320;15.998;2024-02-14T05:56:14;0.20;;;0.10;;
69937;SDS011;57248;47.320;15.998;2024-02-14T05:58:46;0.28;;;0.08;;
69937;SDS011;57248;47.320;15.998;2024-02-14T06:01:11;0.23;;;0.03;;
69937;SDS011;57248;47.320;15.998;2024-02-14T06:03:44;2.85;;;0.25;;
69937;SDS011;57248;47.320;15.998;2024-02-14T06:06:16;0.25;;;0.03;;
69937;SDS011;57248;47.320;15.998;2024-02-14T06:08:48;0.90;;;0.13;;
69937;SDS011;57248;47.320;15.998;2024-02-14T06:11:20;0.63;;;0.17;;
69937;SDS011;57248;47.320;15.998;2024-02-14T06:13:53;1.02;;;0.25;;
69937;SDS011;57248;47.320;15.998;2024-02-14T06:16:26;0.40;;;0.00;;
69937;SDS011;57248;47.320;15.998;2024-02-14T06:18:58;0.85;;;0.32;;
69937;SDS011;57248;47.320;15.998;2024-02-14T06:21:30;0.55;;;0.10;;
69937;SDS011;57248;47.320;15.998;2024-02-14T06:23:55;0.70;;;0.30;;
69937;SDS011;57248;47.320;15.998;2024-02-14T06:26:30;1.13;;;0.10;;
69937;SDS011;57248;47.320;15.998;2024-02-14T06:29:10;0.55;;;0.22;;
69937;SDS011;57248;47.320;15.998;2024-02-14T06:31:42;1.40;;;0.17;;
69937;SDS011;57248;47.320;15.998;2024-02-14T06:34:14;0.85;;;0.30;;
69937;SDS011;57248;47.320;15.998;2024-02-14T06:36:46;1.75;;;0.55;;
69937;SDS011;57248;47.320;15.998;2024-02-14T06:39:12;2.10;;;0.70;;
69937;SDS011;57248;47.320;15.998;2024-02-14T06:41:44;0.45;;;0.20;;
69937;SDS011;57248;47.320;15.998;2024-02-14T06:44:17;1.03;;;0.17;;
69937;SDS011;57248;47.320;15.998;2024-02-14T06:46:50;1.40;;;0.20;;
69937;SDS011;57248;47.320;15.998;2024-02-14T06:49:22;1.48;;;0.45;;
69937;SDS011;57248;47.320;15.998;2024-02-14T06:51:55;1.92;;;0.63;;
69937;SDS011;57248;47.320;15.998;2024-02-14T06:54:27;2.90;;;0.47;;
69937;SDS011;57248;47.320;15.998;2024-02-14T06:56:59;0.87;;;0.07;;
69937;SDS011;57248;47.320;15.998;2024-02-14T06:59:32;1.42;;;0.30;;
69937;SDS011;57248;47.320;15.998;2024-02-14T07:01:57;4.70;;;0.77;;
69937;SDS011;57248;47.320;15.998;2024-02-14T07:04:31;2.53;;;0.30;;
69937;SDS011;57248;47.320;15.998;2024-02-14T07:07:03;3.40;;;0.60;;
69937;SDS011;57248;47.320;15.998;2024-02-14T07:09:35;3.20;;;0.65;;
69937;SDS011;57248;47.320;15.998;2024-02-14T07:12:08;3.38;;;0.70;;
69937;SDS011;57248;47.320;15.998;2024-02-14T07:14:40;6.88;;;1.10;;
69937;SDS011;57248;47.320;15.998;2024-02-14T07:17:13;2.50;;;0.60;;
69937;SDS011;57248;47.320;15.998;2024-02-14T07:19:45;4.95;;;0.85;;
69937;SDS011;57248;47.320;15.998;2024-02-14T07:22:21;3.58;;;0.90;;
69937;SDS011;57248;47.320;15.998;2024-02-14T07:25:00;4.53;;;1.10;;
69937;SDS011;57248;47.320;15.998;2024-02-14T07:27:32;4.30;;;1.13;;
69937;SDS011;57248;47.320;15.998;2024-02-14T07:30:04;2.47;;;0.90;;
69937;SDS011;57248;47.320;15.998;2024-02-14T07:32:37;6.78;;;1.08;;
69937;SDS011;57248;47.320;15.998;2024-02-14T07:35:10;3.60;;;1.15;;
69937;SDS011;57248;47.320;15.998;2024-02-14T07:37:42;3.22;;;0.85;;
69937;SDS011;57248;47.320;15.998;2024-02-14T07:40:15;3.13;;;0.90;;
69937;SDS011;57248;47.320;15.998;2024-02-14T07:42:47;6.73;;;1.50;;
69937;SDS011;57248;47.320;15.998;2024-02-14T07:45:19;2.95;;;0.82;;
69937;SDS011;57248;47.320;15.998;2024-02-14T07:47:51;3.65;;;0.80;;
69937;SDS011;57248;47.320;15.998;2024-02-14T07:50:17;2.47;;;0.60;;
69937;SDS011;57248;47.320;15.998;2024-02-14T07:52:49;5.70;;;1.30;;
69937;SDS011;57248;47.320;15.998;2024-02-14T07:55:21;4.15;;;0.95;;
69937;SDS011;57248;47.320;15.998;2024-02-14T07:57:54;2.25;;;0.80;;
69937;SDS011;57248;47.320;15.998;2024-02-14T08:00:26;1.85;;;0.30;;
69937;SDS011;57248;47.320;15.998;2024-02-14T08:02:58;7.53;;;0.80;;
69937;SDS011;57248;47.320;15.998;2024-02-14T08:05:30;1.63;;;0.27;;
69937;SDS011;57248;47.320;15.998;2024-02-14T08:08:02;1.92;;;0.50;;
69937;SDS011;57248;47.320;15.998;2024-02-14T08:10:34;2.67;;;0.55;;
69937;SDS011;57248;47.320;15.998;2024-02-14T08:13:07;2.08;;;0.63;;
69937;SDS011;57248;47.320;15.998;2024-02-14T08:15:56;2.47;;;0.45;;
69937;SDS011;57248;47.320;15.998;2024-02-14T08:18:28;1.60;;;0.30;;
69937;SDS011;57248;47.320;15.998;2024-02-14T08:21:01;3.05;;;0.57;;
69937;SDS011;57248;47.320;15.998;2024-02-14T08:23:26;1.67;;;0.30;;
69937;SDS011;57248;47.320;15.998;2024-02-14T08:25:58;3.53;;;0.63;;
69937;SDS011;57248;47.320;15.998;2024-02-14T08:28:42;2.75;;;0.57;;
69937;SDS011;57248;47.320;15.998;2024-02-14T08:31:14;2.45;;;0.68;;
69937;SDS011;57248;47.320;15.998;2024-02-14T08:33:46;2.00;;;0.50;;
69937;SDS011;57248;47.320;15.998;2024-02-14T08:36:18;2.13;;;0.60;;
69937;SDS011;57248;47.320;15.998;2024-02-14T08:38:53;2.58;;;0.70;;
69937;SDS011;57248;47.320;15.998;2024-02-14T08:41:25;2.63;;;0.65;;
69937;SDS011;57248;47.320;15.998;2024-02-14T08:43:57;3.20;;;0.60;;
69937;SDS011;57248;47.320;15.998;2024-02-14T08:46:29;3.38;;;1.05;;
69937;SDS011;57248;47.320;15.998;2024-02-14T08:49:01;2.40;;;1.20;;
69937;SDS011;57248;47.320;15.998;2024-02-14T08:51:28;3.15;;;1.25;;
69937;SDS011;57248;47.320;15.998;2024-02-14T08:54:01;2.08;;;1.08;;
69937;SDS011;57248;47.320;15.998;2024-02-14T08:56:30;2.22;;;0.65;;
69937;SDS011;57248;47.320;15.998;2024-02-14T08:59:05;3.63;;;0.90;;
69937;SDS011;57248;47.320;15.998;2024-02-14T09:01:42;6.67;;;0.97;;
69937;SDS011;57248;47.320;15.998;2024-02-14T09:04:14;3.20;;;1.00;;
69937;SDS011;57248;47.320;15.998;2024-02-14T09:06:46;2.10;;;0.80;;
69937;SDS011;57248;47.320;15.998;2024-02-14T09:09:18;2.55;;;0.90;;
69937;SDS011;57248;47.320;15.998;2024-02-14T09:11:52;2.65;;;0.47;;
69937;SDS011;57248;47.320;15.998;2024-02-14T09:14:25;2.80;;;0.27;;
69937;SDS011;57248;47.320;15.998;2024-02-14T09:16:57;1.00;;;0.38;;
69937;SDS011;57248;47.320;15.998;2024-02-14T09:19:29;1.52;;;0.50;;
69937;SDS011;57248;47.320;15.998;2024-02-14T09:22:01;1.60;;;0.50;;
69937;SDS011;57248;47.320;15.998;2024-02-14T09:24:40;1.25;;;0.40;;
69937;SDS011;57248;47.320;15.998;2024-02-14T09:27:12;2.23;;;0.53;;
69937;SDS011;57248;47.320;15.998;2024-02-14T09:29:51;4.40;;;0.82;;
69937;SDS011;57248;47.320;15.998;2024-02-14T09:32:23;2.95;;;0.80;;
69937;SDS011;57248;47.320;15.998;2024-02-14T09:34:55;3.45;;;1.00;;
69937;SDS011;57248;47.320;15.998;2024-02-14T09:37:28;2.45;;;0.70;;
69937;SDS011;57248;47.320;15.998;2024-02-14T09:39:53;2.77;;;0.80;;
69937;SDS011;57248;47.320;15.998;2024-02-14T09:42:36;2.97;;;1.00;;
69937;SDS011;57248;47.320;15.998;2024-02-14T09:45:14;2.60;;;1.17;;
69937;SDS011;57248;47.320;15.998;2024-02-14T09:47:46;2.70;;;1.20;;
69937;SDS011;57248;47.320;15.998;2024-02-14T09:50:19;3.05;;;1.30;;
69937;SDS011;57248;47.320;15.998;2024-02-14T09:52:52;3.30;;;1.38;;
69937;SDS011;57248;47.320;15.998;2024-02-14T09:55:25;3.95;;;1.77;;
69937;SDS011;57248;47.320;15.998;2024-02-14T09:57:58;2.92;;;1.50;;
69937;SDS011;57248;47.320;15.998;2024-02-14T10:00:35;2.67;;;1.60;;
69937;SDS011;57248;47.320;15.998;2024-02-14T10:03:07;1.70;;;0.90;;
69937;SDS011;57248;47.320;15.998;2024-02-14T10:05:39;1.98;;;0.60;;
69937;SDS011;57248;47.320;15.998;2024-02-14T10:08:12;1.70;;;0.70;;
69937;SDS011;57248;47.320;15.998;2024-02-14T10:10:46;2.17;;;0.50;;
69937;SDS011;57248;47.320;15.998;2024-02-14T10:13:22;2.87;;;0.60;;
69937;SDS011;57248;47.320;15.998;2024-02-14T10:15:55;3.38;;;0.60;;
69937;SDS011;57248;47.320;15.998;2024-02-14T10:18:34;2.45;;;0.50;;
69937;SDS011;57248;47.320;15.998;2024-02-14T10:21:08;2.95;;;0.50;;
69937;SDS011;57248;47.320;15.998;2024-02-14T10:23:50;3.33;;;0.80;;
69937;SDS011;57248;47.320;15.998;2024-02-14T10:26:24;2.70;;;0.80;;
69937;SDS011;57248;47.320;15.998;2024-02-14T10:29:03;2.42;;;0.90;;
69937;SDS011;57248;47.320;15.998;2024-02-14T10:31:37;2.53;;;1.00;;
69937;SDS011;57248;47.320;15.998;2024-02-14T10:34:09;2.70;;;0.70;;
69937;SDS011;57248;47.320;15.998;2024-02-14T10:36:52;1.95;;;0.85;;
69937;SDS011;57248;47.320;15.998;2024-02-14T10:39:27;2.83;;;0.90;;
69937;SDS011;57248;47.320;15.998;2024-02-14T10:42:02;1.60;;;0.75;;
69937;SDS011;57248;47.320;15.998;2024-02-14T10:44:35;2.00;;;0.82;;
69937;SDS011;57248;47.320;15.998;2024-02-14T10:47:09;2.80;;;0.80;;
69937;SDS011;57248;47.320;15.998;2024-02-14T10:49:46;3.28;;;0.52;;
69937;SDS011;57248;47.320;15.998;2024-02-14T10:52:20;2.20;;;0.60;;
69937;SDS011;57248;47.320;15.998;2024-02-14T10:54:55;1.73;;;0.57;;
69937;SDS011;57248;47.320;15.998;2024-02-14T10:57:30;1.50;;;0.60;;
69937;SDS011;57248;47.320;15.998;2024-02-14T11:00:06;1.65;;;0.50;;
69937;SDS011;57248;47.320;15.998;2024-02-14T11:02:34;1.25;;;0.40;;
69937;SDS011;57248;47.320;15.998;2024-02-14T11:05:13;1.83;;;0.80;;
69937;SDS011;57248;47.320;15.998;2024-02-14T11:07:50;1.75;;;0.70;;
69937;SDS011;57248;47.320;15.998;2024-02-14T11:10:19;1.55;;;0.60;;
69937;SDS011;57248;47.320;15.998;2024-02-14T11:12:53;2.55;;;0.70;;
69937;SDS011;57248;47.320;15.998;2024-02-14T11:15:26;1.33;;;0.32;;
69937;SDS011;57248;47.320;15.998;2024-02-14T11:18:04;1.80;;;0.40;;
69937;SDS011;57248;47.320;15.998;2024-02-14T11:20:39;1.98;;;0.30;;
69937;SDS011;57248;47.320;15.998;2024-02-14T11:23:20;2.05;;;0.55;;
69937;SDS011;57248;47.320;15.998;2024-02-14T11:26:00;2.42;;;0.57;;
69937;SDS011;57248;47.320;15.998;2024-02-14T11:28:37;1.48;;;0.40;;
69937;SDS011;57248;47.320;15.998;2024-02-14T11:31:16;2.67;;;0.73;;
69937;SDS011;57248;47.320;15.998;2024-02-14T11:33:48;1.63;;;0.60;;
69937;SDS011;57248;47.320;15.998;2024-02-14T11:36:23;2.17;;;0.80;;
69937;SDS011;57248;47.320;15.998;2024-02-14T11:38:55;1.92;;;0.90;;
69937;SDS011;57248;47.320;15.998;2024-02-14T11:41:27;1.73;;;0.80;;
69937;SDS011;57248;47.320;15.998;2024-02-14T11:44:05;1.73;;;0.77;;
69937;SDS011;57248;47.320;15.998;2024-02-14T11:46:37;1.33;;;0.40;;
69937;SDS011;57248;47.320;15.998;2024-02-14T11:49:11;1.20;;;0.30;;
69937;SDS011;57248;47.320;15.998;2024-02-14T11:51:43;2.05;;;0.73;;
69937;SDS011;57248;47.320;15.998;2024-02-14T11:54:15;3.00;;;0.80;;
69937;SDS011;57248;47.320;15.998;2024-02-14T11:56:47;1.20;;;0.50;;
69937;SDS011;57248;47.320;15.998;2024-02-14T11:59:21;1.33;;;0.50;;
69937;SDS011;57248;47.320;15.998;2024-02-14T12:01:54;1.60;;;0.60;;
69937;SDS011;57248;47.320;15.998;2024-02-14T12:04:23;2.70;;;0.60;;
69937;SDS011;57248;47.320;15.998;2024-02-14T12:06:56;1.95;;;0.70;;
69937;SDS011;57248;47.320;15.998;2024-02-14T12:09:28;2.67;;;0.70;;
69937;SDS011;57248;47.320;15.998;2024-02-14T12:12:00;1.27;;;0.50;;
69937;SDS011;57248;47.320;15.998;2024-02-14T12:14:32;2.15;;;0.47;;
69937;SDS011;57248;47.320;15.998;2024-02-14T12:17:04;2.95;;;0.40;;
69937;SDS011;57248;47.320;15.998;2024-02-14T12:19:39;1.45;;;0.52;;
69937;SDS011;57248;47.320;15.998;2024-02-14T12:22:12;2.30;;;0.60;;
69937;SDS011;57248;47.320;15.998;2024-02-14T12:24:49;2.83;;;0.80;;
69937;SDS011;57248;47.320;15.998;2024-02-14T12:27:24;2.83;;;0.60;;
69937;SDS011;57248;47.320;15.998;2024-02-14T12:29:56;1.58;;;0.50;;
69937;SDS011;57248;47.320;15.998;2024-02-14T12:32:29;3.75;;;0.85;;
69937;SDS011;57248;47.320;15.998;2024-02-14T12:34:55;3.83;;;0.50;;
69937;SDS011;57248;47.320;15.998;2024-02-14T12:37:29;5.45;;;1.65;;
69937;SDS011;57248;47.320;15.998;2024-02-14T12:40:02;3.15;;;0.70;;
69937;SDS011;57248;47.320;15.998;2024-02-14T12:42:34;0.82;;;0.10;;
69937;SDS011;57248;47.320;15.998;2024-02-14T12:45:00;2.08;;;0.30;;
69937;SDS011;57248;47.320;15.998;2024-02-14T12:47:32;2.93;;;0.30;;
69937;SDS011;57248;47.320;15.998;2024-02-14T12:50:06;1.08;;;0.20;;
69937;SDS011;57248;47.320;15.998;2024-02-14T12:52:41;0.98;;;0.20;;
69937;SDS011;57248;47.320;15.998;2024-02-14T12:55:13;1.40;;;0.32;;
69937;SDS011;57248;47.320;15.998;2024-02-14T12:57:45;1.88;;;0.30;;
69937;SDS011;57248;47.320;15.998;2024-02-14T13:00:17;1.53;;;0.20;;
69937;SDS011;57248;47.320;15.998;2024-02-14T13:02:51;3.20;;;0.60;;
69937;SDS011;57248;47.320;15.998;2024-02-14T13:05:25;2.20;;;0.60;;
69937;SDS011;57248;47.320;15.998;2024-02-14T13:07:57;1.95;;;0.60;;
69937;SDS011;57248;47.320;15.998;2024-02-14T13:10:29;3.45;;;0.55;;
69937;SDS011;57248;47.320;15.998;2024-02-14T13:13:04;1.40;;;0.67;;
69937;SDS011;57248;47.320;15.998;2024-02-14T13:15:36;1.65;;;0.68;;
69937;SDS011;57248;47.320;15.998;2024-02-14T13:18:08;3.33;;;0.52;;
69937;SDS011;57248;47.320;15.998;2024-02-14T13:20:41;2.53;;;0.45;;
69937;SDS011;57248;47.320;15.998;2024-02-14T13:23:14;2.45;;;0.45;;
69937;SDS011;57248;47.320;15.998;2024-02-14T13:25:46;2.07;;;0.50;;
69937;SDS011;57248;47.320;15.998;2024-02-14T13:28:25;1.60;;;0.60;;
69937;SDS011;57248;47.320;15.998;2024-02-14T13:30:50;1.87;;;0.53;;
69937;SDS011;57248;47.320;15.998;2024-02-14T13:33:24;1.40;;;0.40;;
69937;SDS011;57248;47.320;15.998;2024-02-14T13:35:49;2.92;;;0.47;;
69937;SDS011;57248;47.320;15.998;2024-02-14T13:38:22;1.37;;;0.40;;
69937;SDS011;57248;47.320;15.998;2024-02-14T13:40:55;1.50;;;0.57;;
69937;SDS011;57248;47.320;15.998;2024-02-14T13:43:27;1.50;;;0.43;;
69937;SDS011;57248;47.320;15.998;2024-02-14T13:46:00;2.22;;;0.50;;
69937;SDS011;57248;47.320;15.998;2024-02-14T13:48:32;1.50;;;0.30;;
69937;SDS011;57248;47.320;15.998;2024-02-14T13:51:05;1.03;;;0.47;;
69937;SDS011;57248;47.320;15.998;2024-02-14T13:53:37;4.68;;;0.80;;
69937;SDS011;57248;47.320;15.998;2024-02-14T13:56:09;1.48;;;0.30;;
69937;SDS011;57248;47.320;15.998;2024-02-14T13:58:41;4.80;;;1.30;;
69937;SDS011;57248;47.320;15.998;2024-02-14T14:01:13;9.90;;;1.70;;
69937;SDS011;57248;47.320;15.998;2024-02-14T14:03:45;2.57;;;0.43;;
69937;SDS011;57248;47.320;15.998;2024-02-14T14:06:18;1.92;;;0.40;;
69937;SDS011;57248;47.320;15.998;2024-02-14T14:08:50;1.77;;;0.30;;
69937;SDS011;57248;47.320;15.998;2024-02-14T14:11:22;2.05;;;0.60;;
69937;SDS011;57248;47.320;15.998;2024-02-14T14:13:48;1.23;;;0.20;;
69937;SDS011;57248;47.320;15.998;2024-02-14T14:16:21;0.50;;;0.10;;
69937;SDS011;57248;47.320;15.998;2024-02-14T14:18:53;0.93;;;0.20;;
69937;SDS011;57248;47.320;15.998;2024-02-14T14:21:25;1.77;;;0.20;;
69937;SDS011;57248;47.320;15.998;2024-02-14T14:23:57;0.90;;;0.10;;
69937;SDS011;57248;47.320;15.998;2024-02-14T14:26:36;0.70;;;0.10;;
69937;SDS011;57248;47.320;15.998;2024-02-14T14:29:09;2.50;;;0.55;;
69937;SDS011;57248;47.320;15.998;2024-02-14T14:31:42;5.57;;;0.50;;
69937;SDS011;57248;47.320;15.998;2024-02-14T14:34:15;2.33;;;0.22;;
69937;SDS011;57248;47.320;15.998;2024-02-14T14:36:47;0.80;;;0.20;;
69937;SDS011;57248;47.320;15.998;2024-02-14T14:39:20;1.10;;;0.13;;
69937;SDS011;57248;47.320;15.998;2024-02-14T14:41:52;0.95;;;0.28;;
69937;SDS011;57248;47.320;15.998;2024-02-14T14:44:31;2.90;;;0.20;;
69937;SDS011;57248;47.320;15.998;2024-02-14T14:47:03;2.97;;;0.20;;
69937;SDS011;57248;47.320;15.998;2024-02-14T14:49:30;1.57;;;0.10;;
69937;SDS011;57248;47.320;15.998;2024-02-14T14:52:02;3.00;;;0.47;;
69937;SDS011;57248;47.320;15.998;2024-02-14T14:54:36;1.00;;;0.13;;
69937;SDS011;57248;47.320;15.998;2024-02-14T14:57:08;3.20;;;0.30;;
69937;SDS011;57248;47.320;15.998;2024-02-14T14:59:46;1.35;;;0.17;;
69937;SDS011;57248;47.320;15.998;2024-02-14T15:02:18;0.40;;;0.00;;
69937;SDS011;57248;47.320;15.998;2024-02-14T15:04:50;1.17;;;0.10;;